Time;durP1;ratioP1;P1;durP2;ratioP2;P2;SDS_P1;SDS_P2;PMS_P1;PMS_P2;Temp;Humidity;BMP_temperature;BMP_pressure;BME280_temperature;BME280_humidity;BME280_pressure;Samples;Min_cycle;Max_cycle;Signal;HPM_P1;HPM_P2
2024/03/02 00:01:30;;;;;;;7.30;2.23;;;11.40;96.80;;;;;;4162520;28;20017;-54
2024/03/02 00:03:31;;;;;;;6.80;2.07;;;11.30;96.90;;;;;;4162092;28;20037;-56
2024/03/02 00:05:33;;;;;;;8.80;2.47;;;11.30;96.80;;;;;;4162260;28;20099;-58
2024/03/02 00:07:34;;;;;;;3.37;2.30;;;11.30;96.90;;;;;;4161301;28;20068;-56
2024/03/02 00:09:36;;;;;;;8.10;2.40;;;11.30;96.90;;;;;;4162435;28;20132;-54
2024/03/02 00:11:37;;;;;;;6.27;1.70;;;11.30;96.80;;;;;;4161939;28;20083;-58
2024/03/02 00:13:39;;;;;;;4.60;2.13;;;11.30;97.00;;;;;;4162879;28;20037;-55
2024/03/02 00:15:49;;;;;;;3.47;2.03;;;11.30;96.70;;;;;;4144356;28;20534;-53
2024/03/02 00:17:54;;;;;;;6.70;1.90;;;11.30;96.30;;;;;;4161880;28;20049;-55
2024/03/02 00:19:55;;;;;;;3.47;1.60;;;11.40;96.10;;;;;;4161084;28;20068;-55
2024/03/02 00:22:00;;;;;;;3.70;2.07;;;11.50;96.00;;;;;;4162920;28;20381;-52
2024/03/02 00:24:13;;;;;;;4.63;1.97;;;11.50;96.00;;;;;;4161790;28;20115;-57
2024/03/02 00:26:15;;;;;;;4.23;1.97;;;11.40;96.50;;;;;;4161953;28;20053;-56
2024/03/02 00:28:29;;;;;;;3.77;2.27;;;11.20;96.80;;;;;;4159703;28;20095;-57
2024/03/02 00:31:18;;;;;;;5.93;2.40;;;11.10;97.00;;;;;;4163067;28;20026;-57
2024/03/02 00:33:21;;;;;;;5.30;1.93;;;11.10;96.50;;;;;;4143901;28;20606;-57
2024/03/02 00:35:23;;;;;;;5.13;1.97;;;11.20;96.50;;;;;;4163014;28;20532;-59
2024/03/02 00:37:24;;;;;;;3.87;2.17;;;11.30;96.60;;;;;;4161742;28;20052;-58
2024/03/02 00:39:25;;;;;;;4.90;2.13;;;11.20;96.50;;;;;;4162685;28;20034;-55
2024/03/02 00:41:31;;;;;;;6.93;2.30;;;11.20;96.60;;;;;;4160700;28;20053;-58
2024/03/02 00:43:52;;;;;;;3.93;1.93;;;11.20;96.70;;;;;;4162539;28;20033;-57
2024/03/02 00:45:53;;;;;;;6.83;2.33;;;11.10;97.00;;;;;;4143496;28;20045;-53
2024/03/02 00:47:55;;;;;;;3.23;2.10;;;11.10;97.20;;;;;;4161276;28;20123;-54
2024/03/02 00:49:56;;;;;;;4.50;2.03;;;10.90;97.50;;;;;;4160734;28;20049;-57
2024/03/02 00:51:58;;;;;;;5.23;2.77;;;10.80;97.90;;;;;;4161948;28;20599;-56
2024/03/02 00:54:03;;;;;;;12.33;3.73;;;10.70;98.20;;;;;;4160311;28;20171;-57
2024/03/02 00:56:10;;;;;;;8.03;3.17;;;10.60;98.40;;;;;;4161501;28;20474;-56
2024/03/02 00:58:12;;;;;;;6.93;2.73;;;10.50;98.50;;;;;;4161352;28;20571;-57
2024/03/02 01:00:15;;;;;;;6.70;2.50;;;10.50;98.60;;;;;;4162185;28;20029;-57
2024/03/02 01:02:16;;;;;;;5.00;2.47;;;10.40;98.70;;;;;;4161254;28;20472;-58
2024/03/02 01:04:17;;;;;;;6.47;2.60;;;10.40;98.70;;;;;;4161409;28;20045;-54
2024/03/02 01:06:19;;;;;;;7.77;2.10;;;10.30;98.80;;;;;;4161079;28;20095;-58
2024/03/02 01:08:20;;;;;;;5.87;2.87;;;10.30;98.80;;;;;;4160890;28;20037;-52
2024/03/02 01:10:21;;;;;;;13.73;2.40;;;10.30;98.80;;;;;;4161834;28;20033;-54
2024/03/02 01:12:22;;;;;;;4.33;2.00;;;10.30;98.80;;;;;;4160386;28;20037;-54
2024/03/02 01:14:24;;;;;;;4.17;2.20;;;10.40;98.80;;;;;;4162098;28;20022;-55
2024/03/02 01:16:25;;;;;;;6.33;2.20;;;10.40;98.70;;;;;;4160121;28;20432;-57
2024/03/02 01:18:27;;;;;;;6.07;2.10;;;10.30;98.70;;;;;;4161760;28;20041;-56
2024/03/02 01:20:28;;;;;;;8.87;2.43;;;10.30;98.80;;;;;;4161007;28;20029;-57
2024/03/02 01:22:29;;;;;;;4.73;2.70;;;10.30;98.80;;;;;;4162103;28;20083;-58
2024/03/02 01:24:30;;;;;;;3.73;2.00;;;10.30;98.90;;;;;;4160436;28;20152;-57
2024/03/02 01:26:31;;;;;;;6.00;2.40;;;10.20;98.90;;;;;;4161329;28;20099;-56
2024/03/02 01:28:33;;;;;;;6.33;2.40;;;10.20;99.20;;;;;;4160797;28;20129;-56
2024/03/02 01:30:34;;;;;;;5.27;2.37;;;10.20;98.90;;;;;;4160961;28;20045;-57
2024/03/02 01:32:38;;;;;;;5.93;1.90;;;10.20;99.10;;;;;;4160611;28;20030;-58
2024/03/02 01:34:39;;;;;;;9.73;2.57;;;10.20;98.80;;;;;;4161365;28;20029;-58
2024/03/02 01:36:40;;;;;;;7.20;2.13;;;10.20;98.90;;;;;;4160570;28;20482;-59
2024/03/02 01:38:42;;;;;;;4.60;2.33;;;10.20;98.90;;;;;;4160899;28;20417;-57
2024/03/02 01:40:46;;;;;;;11.87;3.63;;;10.20;99.00;;;;;;4160360;28;20389;-55
2024/03/02 01:42:47;;;;;;;4.73;2.30;;;10.10;99.00;;;;;;4159847;28;20075;-53
2024/03/02 01:44:48;;;;;;;5.87;2.00;;;10.10;99.00;;;;;;4160499;28;20076;-54
2024/03/02 01:46:50;;;;;;;4.77;2.10;;;10.10;99.00;;;;;;4160660;28;20025;-55
2024/03/02 01:48:52;;;;;;;6.07;2.23;;;10.10;99.30;;;;;;4159038;28;20402;-57
2024/03/02 01:50:53;;;;;;;6.33;2.77;;;10.10;99.00;;;;;;4159862;28;20041;-57
2024/03/02 01:52:57;;;;;;;7.47;2.40;;;10.20;99.00;;;;;;4161601;28;20029;-57
2024/03/02 01:54:58;;;;;;;5.27;2.17;;;10.20;99.00;;;;;;4159068;28;20110;-57
2024/03/02 01:57:00;;;;;;;4.97;2.30;;;10.20;99.00;;;;;;4160543;28;20095;-58
2024/03/02 01:59:01;;;;;;;5.70;2.50;;;10.20;99.10;;;;;;4159693;28;20033;-56
2024/03/02 02:01:02;;;;;;;4.83;2.57;;;10.20;99.10;;;;;;4161582;28;20025;-57
2024/03/02 02:03:04;;;;;;;6.03;2.83;;;10.20;99.10;;;;;;4160258;28;20037;-59
2024/03/02 02:05:05;;;;;;;8.50;2.63;;;10.20;99.20;;;;;;4160214;28;20084;-56
2024/03/02 02:07:07;;;;;;;7.37;2.60;;;10.10;99.40;;;;;;4159355;28;20104;-56
2024/03/02 02:09:08;;;;;;;3.93;2.20;;;10.00;99.60;;;;;;4159973;28;20053;-53
2024/03/02 02:11:09;;;;;;;9.13;2.93;;;9.90;99.60;;;;;;4160079;28;20088;-57
2024/03/02 02:13:10;;;;;;;8.27;2.70;;;9.90;99.80;;;;;;4159748;28;20475;-57
2024/03/02 02:15:25;;;;;;;3.97;2.50;;;9.80;99.90;;;;;;4160745;28;20094;-53
2024/03/02 02:17:27;;;;;;;7.57;2.37;;;9.80;99.80;;;;;;4159577;28;20444;-57
2024/03/02 02:19:28;;;;;;;7.27;2.63;;;9.80;99.60;;;;;;4161289;28;20425;-56
2024/03/02 02:21:29;;;;;;;10.33;2.50;;;9.90;99.60;;;;;;4159664;28;20111;-57
2024/03/02 02:23:31;;;;;;;7.87;2.60;;;10.00;99.40;;;;;;4160797;28;20095;-57
2024/03/02 02:25:32;;;;;;;7.27;3.03;;;10.00;99.40;;;;;;4160017;28;20420;-55
2024/03/02 02:27:33;;;;;;;7.23;3.63;;;10.00;99.50;;;;;;4161526;28;20111;-58
2024/03/02 02:29:35;;;;;;;5.93;2.70;;;9.90;99.60;;;;;;4159712;28;20080;-59
2024/03/02 02:31:40;;;;;;;5.10;2.53;;;9.90;99.70;;;;;;4160874;28;20045;-54
2024/03/02 02:33:42;;;;;;;5.47;2.27;;;9.80;99.90;;;;;;4160537;28;20076;-55
2024/03/02 02:35:43;;;;;;;7.57;2.73;;;9.70;99.90;;;;;;4160620;28;20045;-56
2024/03/02 02:37:46;;;;;;;3.97;2.30;;;9.70;99.90;;;;;;4160156;28;20404;-56
2024/03/02 02:39:48;;;;;;;6.00;2.30;;;9.70;99.90;;;;;;4160405;28;20436;-57
2024/03/02 02:41:49;;;;;;;5.40;2.50;;;9.70;99.90;;;;;;4159760;28;20091;-53
2024/03/02 02:43:51;;;;;;;7.90;2.40;;;9.70;99.90;;;;;;4160622;28;20087;-56
2024/03/02 02:45:52;;;;;;;6.20;2.10;;;9.70;99.80;;;;;;4160720;28;20300;-54
2024/03/02 02:47:53;;;;;;;5.57;2.47;;;9.70;99.80;;;;;;4159546;28;20041;-58
2024/03/02 02:49:54;;;;;;;4.83;3.13;;;9.80;99.80;;;;;;4160960;28;20057;-56
2024/03/02 02:51:55;;;;;;;7.70;2.57;;;9.80;99.70;;;;;;4160179;28;20101;-57
2024/03/02 02:53:57;;;;;;;6.20;2.93;;;9.80;99.70;;;;;;4164410;28;20045;-58
2024/03/02 02:55:58;;;;;;;6.57;2.40;;;9.80;99.70;;;;;;4162312;28;20428;-54
2024/03/02 02:57:59;;;;;;;8.70;3.40;;;9.80;99.70;;;;;;4163627;28;20045;-58
2024/03/02 03:00:04;;;;;;;7.33;3.23;;;9.80;99.70;;;;;;4162221;28;20038;-57
2024/03/02 03:02:05;;;;;;;7.57;2.97;;;9.80;99.60;;;;;;4163336;28;20029;-57
2024/03/02 03:04:06;;;;;;;6.03;3.00;;;9.80;99.70;;;;;;4162620;28;20091;-55
2024/03/02 03:06:07;;;;;;;6.27;2.70;;;9.80;99.70;;;;;;4164048;28;20103;-56
2024/03/02 03:08:08;;;;;;;8.50;2.97;;;9.80;99.70;;;;;;4162900;28;20544;-57
2024/03/02 03:10:10;;;;;;;8.60;3.60;;;9.80;99.70;;;;;;4163381;28;20033;-56
2024/03/02 03:12:11;;;;;;;6.63;2.80;;;9.80;99.60;;;;;;4162310;28;20045;-57
2024/03/02 03:14:12;;;;;;;7.30;3.17;;;9.80;99.60;;;;;;4162905;28;20060;-56
2024/03/02 03:16:13;;;;;;;7.17;3.13;;;9.80;99.70;;;;;;4162945;28;20045;-57
2024/03/02 03:18:15;;;;;;;7.20;3.20;;;9.70;99.80;;;;;;4162371;28;20485;-56
2024/03/02 03:20:16;;;;;;;6.20;3.00;;;9.70;99.80;;;;;;4163309;28;20041;-55
2024/03/02 03:22:17;;;;;;;6.37;2.70;;;9.70;99.90;;;;;;4162812;28;20033;-55
2024/03/02 03:24:19;;;;;;;11.07;3.03;;;9.70;99.80;;;;;;4163083;28;20045;-52
2024/03/02 03:26:20;;;;;;;8.40;2.60;;;9.70;99.80;;;;;;4162373;28;20123;-60
2024/03/02 03:28:21;;;;;;;6.97;2.83;;;9.70;99.80;;;;;;4163635;28;20481;-56
2024/03/02 03:30:22;;;;;;;7.70;3.33;;;9.70;99.90;;;;;;4162366;28;20440;-54
2024/03/02 03:32:24;;;;;;;13.60;2.67;;;9.60;99.90;;;;;;4162797;28;20049;-54
2024/03/02 03:34:25;;;;;;;7.20;3.03;;;9.60;99.90;;;;;;4162997;28;20489;-54
2024/03/02 03:36:26;;;;;;;5.60;2.97;;;9.60;99.90;;;;;;4162859;28;20098;-52
2024/03/02 03:38:27;;;;;;;7.63;2.80;;;9.60;99.90;;;;;;4161643;28;20069;-58
2024/03/02 03:40:30;;;;;;;6.17;3.20;;;9.60;99.90;;;;;;4162317;28;20520;-59
2024/03/02 03:42:31;;;;;;;7.27;2.97;;;9.50;99.90;;;;;;4162539;28;20531;-56
2024/03/02 03:44:32;;;;;;;5.17;2.70;;;9.50;99.90;;;;;;4163088;28;21232;-58
2024/03/02 03:46:34;;;;;;;9.40;3.00;;;9.40;99.90;;;;;;4162841;28;20100;-54
2024/03/02 03:48:35;;;;;;;8.47;3.30;;;9.40;99.90;;;;;;4161798;28;20156;-57
2024/03/02 03:50:38;;;;;;;7.10;3.50;;;9.40;99.90;;;;;;4162407;28;20375;-56
2024/03/02 03:52:39;;;;;;;6.13;3.23;;;9.40;99.90;;;;;;4161633;28;20046;-58
2024/03/02 03:54:42;;;;;;;7.03;4.23;;;9.30;99.90;;;;;;4162754;28;20046;-54
2024/03/02 03:56:44;;;;;;;12.23;4.30;;;9.30;99.90;;;;;;4161401;28;20115;-55
2024/03/02 03:58:45;;;;;;;7.47;3.67;;;9.30;99.90;;;;;;4163277;28;20025;-55
2024/03/02 04:00:46;;;;;;;10.13;3.80;;;9.30;99.90;;;;;;4160768;28;20034;-53
2024/03/02 04:02:47;;;;;;;7.87;3.10;;;9.20;99.90;;;;;;4162442;28;20309;-56
2024/03/02 04:04:49;;;;;;;5.83;2.83;;;9.20;99.90;;;;;;4162148;28;20021;-55
2024/03/02 04:06:50;;;;;;;9.27;3.37;;;9.20;99.90;;;;;;4162528;28;20191;-54
2024/03/02 04:08:51;;;;;;;7.47;3.10;;;9.20;99.90;;;;;;4161433;28;20049;-57
2024/03/02 04:10:52;;;;;;;7.37;2.90;;;9.20;99.90;;;;;;4163035;28;20069;-58
2024/03/02 04:12:53;;;;;;;7.40;2.73;;;9.20;99.90;;;;;;4161449;28;20041;-54
2024/03/02 04:14:55;;;;;;;13.50;3.63;;;9.20;99.90;;;;;;4162599;28;20029;-57
2024/03/02 04:16:56;;;;;;;7.57;2.90;;;9.20;99.90;;;;;;4161952;28;20038;-53
2024/03/02 04:18:57;;;;;;;7.83;3.67;;;9.20;99.90;;;;;;4161786;28;20037;-57
2024/03/02 04:20:59;;;;;;;7.83;3.27;;;9.10;99.90;;;;;;4162468;28;20017;-53
2024/03/02 04:23:00;;;;;;;8.23;3.07;;;9.10;99.90;;;;;;4161082;28;20041;-53
2024/03/02 04:25:04;;;;;;;13.70;3.47;;;9.10;99.90;;;;;;4162000;28;20154;-57
2024/03/02 04:27:05;;;;;;;8.03;3.30;;;9.10;99.90;;;;;;4160490;28;20049;-55
2024/03/02 04:29:06;;;;;;;9.97;3.23;;;9.10;99.90;;;;;;4161958;28;20437;-50
2024/03/02 04:31:08;;;;;;;7.47;3.87;;;9.00;99.90;;;;;;4160660;28;20096;-58
2024/03/02 04:33:10;;;;;;;10.90;3.77;;;9.00;99.90;;;;;;4163141;28;20025;-57
2024/03/02 04:35:11;;;;;;;7.33;3.17;;;9.00;99.90;;;;;;4161785;28;20585;-54
2024/03/02 04:37:12;;;;;;;10.97;3.83;;;8.90;99.90;;;;;;4162812;28;20052;-55
2024/03/02 04:39:13;;;;;;;6.27;2.87;;;8.90;99.90;;;;;;4143619;28;20824;-57
2024/03/02 04:41:15;;;;;;;9.53;3.40;;;8.90;99.90;;;;;;4161955;28;20441;-57
2024/03/02 04:43:16;;;;;;;6.93;2.23;;;8.80;99.90;;;;;;4161349;28;20389;-54
2024/03/02 04:45:17;;;;;;;10.43;2.80;;;8.80;99.90;;;;;;4161527;28;20080;-56
2024/03/02 04:47:18;;;;;;;5.13;2.70;;;8.80;99.90;;;;;;4160863;28;20083;-56
2024/03/02 04:49:21;;;;;;;6.83;2.43;;;8.80;99.90;;;;;;4160947;28;20037;-58
2024/03/02 04:51:23;;;;;;;4.67;2.60;;;8.80;99.90;;;;;;4162048;28;20038;-54
2024/03/02 04:53:24;;;;;;;5.90;3.00;;;8.80;99.90;;;;;;4160790;28;20496;-57
2024/03/02 04:57:29;;;;;;;9.20;2.83;;;8.70;99.90;;;;;;4161256;28;20117;-57
2024/03/02 04:59:30;;;;;;;5.90;2.37;;;8.70;99.90;;;;;;4161321;28;20049;-55
2024/03/02 05:01:33;;;;;;;6.40;2.63;;;8.70;99.90;;;;;;4160366;28;20445;-55
2024/03/02 05:03:34;;;;;;;7.07;2.80;;;8.70;99.90;;;;;;4161983;28;20045;-58
2024/03/02 05:05:37;;;;;;;6.60;2.33;;;8.70;99.90;;;;;;4160298;28;20046;-54
2024/03/02 05:07:38;;;;;;;9.73;2.87;;;8.70;99.90;;;;;;4161586;28;20057;-56
2024/03/02 05:09:40;;;;;;;8.60;2.50;;;8.70;99.90;;;;;;4161066;28;20065;-54
2024/03/02 05:13:46;;;;;;;12.73;4.97;;;8.80;99.90;;;;;;4161139;28;20379;-57
2024/03/02 05:15:47;;;;;;;11.50;4.77;;;8.80;99.90;;;;;;4161417;28;20029;-53
2024/03/02 05:17:48;;;;;;;6.50;3.73;;;8.80;99.90;;;;;;4160012;28;20437;-56
2024/03/02 05:19:50;;;;;;;7.53;3.10;;;8.80;99.90;;;;;;4160752;28;20029;-55
2024/03/02 05:21:51;;;;;;;8.13;3.40;;;8.80;99.90;;;;;;4161209;28;20563;-54
2024/03/02 05:23:52;;;;;;;11.77;3.07;;;8.80;99.90;;;;;;4160530;28;20095;-62
2024/03/02 05:25:54;;;;;;;7.57;3.03;;;8.80;99.90;;;;;;4160451;28;20076;-57
2024/03/02 05:27:55;;;;;;;8.10;3.53;;;8.80;99.90;;;;;;4160783;28;20097;-59
2024/03/02 05:29:58;;;;;;;7.80;4.27;;;8.80;99.90;;;;;;4160587;28;20057;-57
2024/03/02 05:31:59;;;;;;;13.67;4.80;;;8.80;99.90;;;;;;4160019;28;20041;-63
2024/03/02 05:34:00;;;;;;;8.40;4.90;;;8.80;99.90;;;;;;4161980;28;20061;-59
2024/03/02 05:36:02;;;;;;;7.43;4.57;;;8.80;99.90;;;;;;4160626;28;20083;-58
2024/03/02 05:38:03;;;;;;;13.93;5.97;;;8.80;99.90;;;;;;4160978;28;20053;-57
2024/03/02 05:40:05;;;;;;;13.83;7.07;;;8.80;99.90;;;;;;4159481;28;20081;-59
2024/03/02 05:42:08;;;;;;;14.47;7.43;;;8.80;99.90;;;;;;4161819;28;20142;-58
2024/03/02 05:44:09;;;;;;;10.37;5.10;;;8.80;99.90;;;;;;4159880;28;20033;-57
2024/03/02 05:46:11;;;;;;;9.87;4.23;;;8.80;99.90;;;;;;4161406;28;20532;-58
2024/03/02 05:48:13;;;;;;;11.73;4.87;;;8.80;99.90;;;;;;4159481;28;20577;-58
2024/03/02 05:50:14;;;;;;;8.67;3.50;;;8.80;99.90;;;;;;4161410;28;20086;-56
2024/03/02 05:52:15;;;;;;;9.03;4.60;;;8.80;99.90;;;;;;4159911;28;20091;-56
2024/03/02 05:54:16;;;;;;;12.33;4.63;;;8.70;99.90;;;;;;4161006;28;20021;-54
2024/03/02 05:56:17;;;;;;;8.17;4.07;;;8.80;99.90;;;;;;4159915;28;20049;-56
2024/03/02 06:00:46;;;;;;;13.53;4.97;;;8.70;99.90;;;;;;4122092;28;20084;-56
2024/03/02 06:02:47;;;;;;;9.67;4.70;;;8.70;99.90;;;;;;4160128;28;20791;-56
2024/03/02 06:04:49;;;;;;;11.30;4.20;;;8.70;99.90;;;;;;4161134;28;20045;-56
2024/03/02 06:06:50;;;;;;;12.63;3.90;;;8.70;99.90;;;;;;4160320;28;20038;-57
2024/03/02 06:08:51;;;;;;;12.10;4.40;;;8.70;99.90;;;;;;4160175;28;20037;-54
2024/03/02 06:10:53;;;;;;;10.80;4.57;;;8.70;99.90;;;;;;4159453;28;20103;-55
2024/03/02 06:12:54;;;;;;;12.77;4.80;;;8.70;99.90;;;;;;4161436;28;20029;-57
2024/03/02 06:14:55;;;;;;;11.33;4.63;;;8.60;99.90;;;;;;4159768;28;20440;-57
2024/03/02 06:16:57;;;;;;;19.30;6.17;;;8.60;99.90;;;;;;4161127;28;20033;-55
2024/03/02 06:18:58;;;;;;;15.90;4.97;;;8.60;99.90;;;;;;4159752;28;20033;-56
2024/03/02 06:21:00;;;;;;;10.33;4.63;;;8.60;99.90;;;;;;4160967;28;20033;-57
2024/03/02 06:23:02;;;;;;;14.40;4.90;;;8.60;99.90;;;;;;4159059;28;20091;-56
2024/03/02 06:25:03;;;;;;;11.53;5.00;;;8.70;99.90;;;;;;4161462;28;20103;-57
2024/03/02 06:27:05;;;;;;;11.93;4.70;;;8.70;99.90;;;;;;4162861;28;20099;-56
2024/03/02 06:29:07;;;;;;;11.60;4.80;;;8.70;99.90;;;;;;4164536;28;20038;-53
2024/03/02 06:31:08;;;;;;;11.73;4.73;;;8.80;99.90;;;;;;4163439;28;20064;-57
2024/03/02 06:33:10;;;;;;;6.90;4.30;;;8.80;99.90;;;;;;4163613;28;20107;-56
2024/03/02 06:35:12;;;;;;;17.47;6.17;;;8.90;99.90;;;;;;4163920;28;20064;-55
2024/03/02 06:37:13;;;;;;;14.13;5.17;;;8.90;99.90;;;;;;4162102;28;20067;-57
2024/03/02 06:39:14;;;;;;;12.43;5.00;;;9.00;99.90;;;;;;4164247;28;20454;-58
2024/03/02 06:41:16;;;;;;;12.53;4.73;;;9.00;99.90;;;;;;4162830;28;20037;-56
2024/03/02 06:43:17;;;;;;;7.77;4.93;;;9.00;99.90;;;;;;4163824;28;20502;-57
2024/03/02 06:45:18;;;;;;;15.10;7.33;;;9.00;99.90;;;;;;4163250;28;20092;-55
2024/03/02 06:47:20;;;;;;;19.87;7.33;;;9.00;99.90;;;;;;4164586;28;20094;-59
2024/03/02 06:49:21;;;;;;;14.93;6.40;;;9.00;99.90;;;;;;4162538;28;20107;-56
2024/03/02 06:51:22;;;;;;;22.67;8.17;;;9.00;99.90;;;;;;4163644;28;20083;-50
2024/03/02 06:53:23;;;;;;;20.60;7.60;;;9.10;99.90;;;;;;4162427;28;20095;-52
2024/03/02 06:55:25;;;;;;;22.50;7.17;;;9.10;99.90;;;;;;4163753;28;20042;-56
2024/03/02 06:57:26;;;;;;;33.40;13.20;;;9.10;99.90;;;;;;4162638;28;20037;-57
2024/03/02 06:59:27;;;;;;;24.53;10.57;;;9.10;99.90;;;;;;4163028;28;20046;-58
2024/03/02 07:01:28;;;;;;;15.50;8.03;;;9.10;99.90;;;;;;4162122;28;20076;-56
2024/03/02 07:03:32;;;;;;;18.60;7.73;;;9.10;99.90;;;;;;4163665;28;20166;-60
2024/03/02 07:05:34;;;;;;;16.70;7.47;;;9.10;99.90;;;;;;4163502;28;20135;-60
2024/03/02 07:07:35;;;;;;;15.47;5.80;;;9.20;99.90;;;;;;4162103;28;20123;-56
2024/03/02 07:09:36;;;;;;;15.57;5.70;;;9.20;99.90;;;;;;4163726;28;20107;-58
2024/03/02 07:11:37;;;;;;;13.67;5.00;;;9.20;99.90;;;;;;4162637;28;20033;-56
2024/03/02 07:13:39;;;;;;;7.57;3.77;;;9.30;99.90;;;;;;4155068;28;20100;-58
2024/03/02 07:15:59;;;;;;;12.13;4.10;;;9.30;99.90;;;;;;4145714;28;20042;-57
2024/03/02 07:18:01;;;;;;;10.02;4.40;;;9.40;99.90;;;;;;4147327;28;20041;-55
2024/03/02 07:20:03;;;;;;;12.57;4.47;;;9.40;99.90;;;;;;4145934;28;20038;-59
2024/03/02 07:22:08;;;;;;;9.47;4.60;;;9.50;99.90;;;;;;4155931;28;20037;-57
2024/03/02 07:24:13;;;;;;;11.63;4.30;;;9.50;99.90;;;;;;4162908;28;20519;-57
2024/03/02 07:26:14;;;;;;;11.37;4.07;;;9.60;99.90;;;;;;4163088;28;20053;-57
2024/03/02 07:28:16;;;;;;;8.50;4.50;;;9.60;99.90;;;;;;4162914;28;20087;-58
2024/03/02 07:30:17;;;;;;;11.77;4.57;;;9.70;99.90;;;;;;4155437;28;20489;-58
2024/03/02 07:32:18;;;;;;;12.00;4.47;;;9.70;99.90;;;;;;4162695;28;20124;-59
2024/03/02 07:34:20;;;;;;;11.20;3.80;;;9.80;99.90;;;;;;4164154;28;20026;-59
2024/03/02 07:36:21;;;;;;;9.83;3.33;;;9.90;99.80;;;;;;4161950;28;20094;-57
2024/03/02 07:38:23;;;;;;;9.47;3.37;;;10.00;99.40;;;;;;4162122;28;20484;-57
2024/03/02 07:40:24;;;;;;;6.70;3.07;;;10.00;99.10;;;;;;4161848;28;20087;-57
2024/03/02 07:42:26;;;;;;;7.17;2.53;;;10.10;98.90;;;;;;4162351;28;20078;-57
2024/03/02 07:44:27;;;;;;;8.03;2.80;;;10.20;99.00;;;;;;4162051;28;20360;-57
2024/03/02 07:46:28;;;;;;;7.03;2.90;;;10.20;99.00;;;;;;4161840;28;20026;-59
2024/03/02 07:48:30;;;;;;;7.33;3.13;;;10.20;99.10;;;;;;4162261;28;20474;-58
2024/03/02 07:50:34;;;;;;;8.83;2.67;;;10.20;99.30;;;;;;4161272;28;20076;-57
2024/03/02 07:52:36;;;;;;;12.53;3.93;;;10.30;99.60;;;;;;4162519;28;20033;-53
2024/03/02 07:54:37;;;;;;;10.43;3.00;;;10.20;99.70;;;;;;4160308;28;20053;-58
2024/03/02 07:56:38;;;;;;;6.23;2.67;;;10.30;99.60;;;;;;4161893;28;20033;-58
2024/03/02 07:58:41;;;;;;;8.17;3.80;;;10.30;99.70;;;;;;4162020;28;20037;-50
2024/03/02 08:00:43;;;;;;;7.37;2.83;;;10.40;99.80;;;;;;4162815;28;20030;-60
2024/03/02 08:02:44;;;;;;;6.43;3.50;;;10.50;99.90;;;;;;4161641;28;20528;-59
2024/03/02 08:04:46;;;;;;;6.60;3.30;;;10.50;99.90;;;;;;4162604;28;20111;-53
2024/03/02 08:06:47;;;;;;;8.73;3.70;;;10.50;99.90;;;;;;4160785;28;20508;-61
2024/03/02 08:08:49;;;;;;;7.07;3.20;;;10.50;99.90;;;;;;4162374;28;20437;-61
2024/03/02 08:10:50;;;;;;;8.57;3.80;;;10.50;99.90;;;;;;4161204;28;20046;-56
2024/03/02 08:12:51;;;;;;;12.37;4.27;;;10.50;99.90;;;;;;4161803;28;20133;-54
2024/03/02 08:14:52;;;;;;;8.80;3.60;;;10.60;99.90;;;;;;4161681;28;20034;-56
2024/03/02 08:16:54;;;;;;;7.43;3.03;;;10.70;99.90;;;;;;4161847;28;20130;-56
2024/03/02 08:18:57;;;;;;;4.63;2.77;;;10.80;99.90;;;;;;4162748;28;20470;-60
2024/03/02 08:20:59;;;;;;;9.33;2.90;;;10.90;99.90;;;;;;4160642;28;20045;-57
2024/03/02 08:23:02;;;;;;;6.97;3.50;;;10.90;99.90;;;;;;4162409;28;20508;-62
2024/03/02 08:25:03;;;;;;;12.23;3.53;;;11.00;99.70;;;;;;4161116;28;20101;-57
2024/03/02 08:27:04;;;;;;;10.93;3.50;;;11.10;99.60;;;;;;4161918;28;20045;-58
2024/03/02 08:29:06;;;;;;;7.83;4.00;;;11.20;99.50;;;;;;4161066;28;20041;-56
2024/03/02 08:31:07;;;;;;;14.10;4.33;;;11.30;98.90;;;;;;4162625;28;20458;-61
2024/03/02 08:33:08;;;;;;;11.63;3.10;;;11.40;98.70;;;;;;4161295;28;20111;-56
2024/03/02 08:35:10;;;;;;;8.27;3.20;;;11.40;98.50;;;;;;4161184;28;20103;-58
2024/03/02 08:37:11;;;;;;;5.07;2.93;;;11.40;98.40;;;;;;4155610;28;20026;-62
2024/03/02 08:39:15;;;;;;;5.10;3.27;;;11.50;98.20;;;;;;4161653;28;20046;-60
2024/03/02 08:41:16;;;;;;;7.57;3.47;;;11.60;97.90;;;;;;4160631;28;20048;-54
2024/03/02 08:43:18;;;;;;;7.17;4.07;;;11.70;97.60;;;;;;4160461;28;20038;-59
2024/03/02 08:45:20;;;;;;;6.37;3.43;;;11.80;97.20;;;;;;4160096;28;20034;-60
2024/03/02 08:47:21;;;;;;;7.90;3.87;;;11.90;97.00;;;;;;4160796;28;20100;-60
2024/03/02 08:49:23;;;;;;;8.87;3.73;;;12.00;96.80;;;;;;4159446;28;20041;-60
2024/03/02 08:51:24;;;;;;;6.10;2.63;;;12.10;96.50;;;;;;4161078;28;20021;-56
2024/03/02 08:53:25;;;;;;;7.43;3.20;;;12.20;96.40;;;;;;4161604;28;20041;-56
2024/03/02 08:55:26;;;;;;;6.77;3.77;;;12.30;95.80;;;;;;4160565;28;20042;-63
2024/03/02 08:57:28;;;;;;;9.37;3.40;;;12.40;96.00;;;;;;4161498;28;20436;-55
2024/03/02 08:59:29;;;;;;;8.03;3.20;;;12.50;95.80;;;;;;4159950;28;20030;-64
2024/03/02 09:01:30;;;;;;;7.37;3.97;;;12.50;95.40;;;;;;4161249;28;20076;-60
2024/03/02 09:03:33;;;;;;;7.00;3.57;;;12.50;95.50;;;;;;4160880;28;20029;-65
2024/03/02 09:05:34;;;;;;;5.43;3.90;;;12.60;95.60;;;;;;4161880;28;20100;-60
2024/03/02 09:07:35;;;;;;;7.40;3.13;;;12.60;95.40;;;;;;4160896;28;20029;-64
2024/03/02 09:09:38;;;;;;;5.50;3.33;;;12.70;95.30;;;;;;4160708;28;20049;-63
2024/03/02 09:11:40;;;;;;;7.07;3.40;;;12.80;95.20;;;;;;4159669;28;20038;-56
2024/03/02 09:13:42;;;;;;;5.53;2.67;;;12.80;95.20;;;;;;4160777;28;20449;-57
2024/03/02 09:15:44;;;;;;;4.57;1.80;;;12.90;95.10;;;;;;4160917;28;20025;-64
2024/03/02 09:17:45;;;;;;;4.80;1.60;;;13.10;94.40;;;;;;4161399;28;20029;-63
2024/03/02 09:19:47;;;;;;;3.90;1.97;;;13.20;94.20;;;;;;4159652;28;20440;-57
2024/03/02 09:21:50;;;;;;;6.07;2.20;;;13.30;93.80;;;;;;4161077;28;20536;-62
2024/03/02 09:23:51;;;;;;;3.90;1.80;;;13.40;93.80;;;;;;4160769;28;20034;-63
2024/03/02 09:25:52;;;;;;;5.33;2.17;;;13.50;93.40;;;;;;4160321;28;20561;-62
2024/03/02 09:27:53;;;;;;;7.60;2.20;;;13.60;93.30;;;;;;4161424;28;20083;-61
2024/03/02 09:29:54;;;;;;;6.13;2.13;;;13.60;93.10;;;;;;4159467;28;20049;-59
2024/03/02 09:31:56;;;;;;;7.20;2.30;;;13.70;92.90;;;;;;4161198;28;20504;-58
2024/03/02 09:33:57;;;;;;;5.17;1.97;;;13.70;92.70;;;;;;4158923;28;20479;-58
2024/03/02 09:35:58;;;;;;;3.87;1.73;;;13.70;92.60;;;;;;4160763;28;20033;-58
2024/03/02 09:37:59;;;;;;;2.97;1.57;;;13.70;92.70;;;;;;4159011;28;20045;-60
2024/03/02 09:40:01;;;;;;;5.10;1.50;;;13.70;92.50;;;;;;4161125;28;20025;-61
2024/03/02 09:42:04;;;;;;;4.00;2.10;;;13.70;92.20;;;;;;4158682;28;20111;-59
2024/03/02 09:44:06;;;;;;;2.30;1.33;;;13.80;92.30;;;;;;4159274;28;20041;-54
2024/03/02 09:46:10;;;;;;;7.70;1.50;;;13.80;92.20;;;;;;4159471;28;20045;-56
2024/03/02 09:48:12;;;;;;;6.27;2.30;;;13.90;92.10;;;;;;4159996;28;20111;-54
2024/03/02 09:50:13;;;;;;;4.80;2.10;;;13.80;91.90;;;;;;4159489;28;20559;-58
2024/03/02 09:52:15;;;;;;;4.67;2.10;;;13.80;91.90;;;;;;4159715;28;20049;-61
2024/03/02 09:54:18;;;;;;;3.37;1.40;;;13.80;91.90;;;;;;4159916;28;20022;-57
2024/03/02 09:56:21;;;;;;;4.93;1.87;;;13.90;91.70;;;;;;4158955;28;20041;-57
2024/03/02 09:58:22;;;;;;;4.07;1.63;;;13.80;91.70;;;;;;4160291;28;20037;-59
2024/03/02 10:00:25;;;;;;;4.17;1.90;;;13.80;91.90;;;;;;4158120;28;20083;-58
2024/03/02 10:02:26;;;;;;;4.10;2.00;;;13.80;91.80;;;;;;4142468;28;20041;-56
2024/03/02 10:04:32;;;;;;;5.80;2.87;;;13.90;91.80;;;;;;4159740;28;20084;-58
2024/03/02 10:06:33;;;;;;;7.50;2.00;;;14.00;91.80;;;;;;4160668;28;20122;-59
2024/03/02 10:08:43;;;;;;;9.20;3.83;;;13.90;91.50;;;;;;4158997;28;20049;-58
2024/03/02 10:10:45;;;;;;;;;;;14.00;91.60;;;;;;4160459;28;20552;-57
2024/03/02 10:12:46;;;;;;;14.60;5.80;;;14.00;91.50;;;;;;4158534;28;19992;-57
2024/03/02 10:14:50;;;;;;;4.23;1.97;;;14.00;91.50;;;;;;4160086;28;20041;-60
2024/03/02 10:16:51;;;;;;;7.70;4.87;;;14.10;91.40;;;;;;4159261;28;20470;-57
2024/03/02 10:18:52;;;;;;;7.50;3.00;;;14.10;91.50;;;;;;4159958;28;20052;-59
2024/03/02 10:20:53;;;;;;;4.37;2.03;;;14.10;91.40;;;;;;4158296;28;20037;-58
2024/03/02 10:23:14;;;;;;;5.23;1.97;;;14.10;91.20;;;;;;4141659;28;20135;-62
2024/03/02 10:25:31;;;;;;;5.93;2.25;;;14.10;90.80;;;;;;4159380;28;20450;-58
2024/03/02 10:27:34;;;;;;;7.10;2.53;;;14.00;90.90;;;;;;4160802;28;20049;-57
2024/03/02 10:29:40;;;;;;;10.13;2.37;;;14.00;91.10;;;;;;4158481;28;20066;-55
2024/03/02 10:31:43;;;;;;;8.67;2.17;;;14.00;91.00;;;;;;4154719;28;20568;-58
2024/03/02 10:33:44;;;;;;;11.67;4.33;;;14.00;90.90;;;;;;4158516;28;20037;-59
2024/03/02 10:35:47;;;;;;;9.53;3.63;;;13.90;91.00;;;;;;4160204;28;20041;-62
2024/03/02 10:37:49;;;;;;;10.83;5.00;;;14.00;91.00;;;;;;4159586;28;20042;-54
2024/03/02 10:39:52;;;;;;;16.80;7.77;;;13.90;91.00;;;;;;4158947;28;20050;-60
2024/03/02 10:41:55;;;;;;;6.73;3.80;;;13.90;91.10;;;;;;4160424;28;20453;-60
2024/03/02 10:44:00;;;;;;;4.83;2.27;;;13.90;90.90;;;;;;4159243;28;20033;-60
2024/03/02 10:46:02;;;;;;;3.57;2.30;;;13.90;90.90;;;;;;4160065;28;20038;-57